Time;durP1;ratioP1;P1;durP2;ratioP2;P2;SDS_P1;SDS_P2;PMS_P1;PMS_P2;Temp;Humidity;BMP_temperature;BMP_pressure;BME280_temperature;BME280_humidity;BME280_pressure;Samples;Min_cycle;Max_cycle;Signal;HPM_P1;HPM_P2
2022/01/20 00:00:15;;;;;;;14.80;5.03;;;;;;;2.30;100.00;103339.69;5019677;28;20558;-88
2022/01/20 00:02:42;;;;;;;9.20;3.47;;;;;;;2.15;100.00;103322.53;5032566;28;20091;-86
2022/01/20 00:05:32;;;;;;;24.02;7.20;;;;;;;2.22;100.00;103336.44;5050790;28;20037;-79
2022/01/20 00:08:16;;;;;;;13.20;4.05;;;;;;;1.77;100.00;103289.47;5034799;28;20036;-79
2022/01/20 00:27:14;;;;;;;7.78;2.00;;;;;;;2.86;100.00;103355.19;5038327;28;20414;-80
2022/01/20 00:32:20;;;;;;;8.32;1.65;;;;;;;3.26;100.00;103372.16;5044302;28;20041;-81
2022/01/20 00:37:28;;;;;;;3.15;2.42;;;;;;;3.63;100.00;103359.06;5046619;28;20124;-82
2022/01/20 00:39:54;;;;;;;13.73;2.60;;;;;;;3.85;100.00;103364.31;5039684;28;20437;-81
2022/01/20 00:42:20;;;;;;;5.68;2.17;;;;;;;3.94;100.00;103367.44;5035204;28;20071;-81
2022/01/20 00:44:47;;;;;;;5.68;1.90;;;;;;;3.91;100.00;103364.88;5036415;28;20036;-79
2022/01/20 00:47:13;;;;;;;7.57;3.67;;;;;;;4.02;100.00;103371.53;5036399;28;20049;-80
2022/01/20 00:49:40;;;;;;;10.43;3.40;;;;;;;4.11;100.00;103373.78;5034001;28;20079;-82
2022/01/20 00:52:06;;;;;;;6.28;2.53;;;;;;;4.15;100.00;103370.03;5034961;28;20048;-81
2022/01/20 00:54:32;;;;;;;5.55;2.65;;;;;;;4.21;100.00;103367.13;5017845;28;20128;-84
2022/01/20 00:56:58;;;;;;;5.25;1.90;;;;;;;4.19;100.00;103364.50;5037838;28;20047;-77
2022/01/20 00:59:25;;;;;;;5.40;1.65;;;;;;;4.22;100.00;103367.97;5021278;28;20036;-78
2022/01/20 01:01:52;;;;;;;1.30;1.20;;;;;;;4.18;100.00;103353.91;5054619;28;20040;-80
2022/01/20 01:04:18;;;;;;;1.60;1.15;;;;;;;4.21;100.00;103351.16;5048129;28;20044;-80
2022/01/20 01:09:12;;;;;;;11.00;2.53;;;;;;;4.14;100.00;103361.19;5052965;28;20382;-81
2022/01/20 01:11:39;;;;;;;2.70;1.33;;;;;;;4.15;100.00;103367.38;5018150;28;20041;-83
2022/01/20 01:14:06;;;;;;;5.95;1.33;;;;;;;4.26;100.00;103364.22;5060229;28;20047;-79
2022/01/20 01:24:39;;;;;;;10.07;1.55;;;;;;;4.18;100.00;103364.56;5037296;28;20036;-78
2022/01/20 01:27:07;;;;;;;9.82;1.90;;;;;;;4.16;100.00;103366.47;5044726;28;20028;-79
2022/01/20 01:30:05;;;;;;;11.50;1.83;;;;;;;4.10;100.00;103369.38;5038755;28;20467;-79
2022/01/20 01:32:30;;;;;;;4.50;1.52;;;;;;;4.07;100.00;103366.88;5038425;28;20046;-81
2022/01/20 01:34:55;;;;;;;4.57;1.50;;;;;;;3.89;100.00;103355.25;5036993;28;20154;-81
2022/01/20 01:40:12;;;;;;;5.47;1.83;;;;;;;3.77;100.00;103374.44;5036384;28;20063;-80
2022/01/20 01:42:46;;;;;;;3.08;1.13;;;;;;;3.71;100.00;103368.44;5037660;28;20037;-79
2022/01/20 01:45:13;;;;;;;;;;;;;;;3.59;100.00;103362.78;5052845;28;20032;-81
2022/01/20 01:47:39;;;;;;;9.02;1.63;;;;;;;3.25;100.00;103335.81;5035769;28;19920;-79
2022/01/20 01:50:06;;;;;;;6.65;2.08;;;;;;;3.05;100.00;103368.56;5049657;28;20407;-80
2022/01/20 01:52:31;;;;;;;8.25;1.48;;;;;;;2.67;100.00;103363.91;5043139;28;20033;-81
2022/01/20 01:54:57;;;;;;;4.10;1.33;;;;;;;2.34;100.00;103356.34;5019926;28;20390;-79
2022/01/20 01:57:24;;;;;;;3.92;1.45;;;;;;;2.13;100.00;103364.19;5033816;28;20597;-77
2022/01/20 01:59:50;;;;;;;7.35;1.50;;;;;;;2.02;100.00;103369.03;5031003;28;20041;-77
2022/01/20 02:02:16;;;;;;;5.13;1.17;;;;;;;1.89;100.00;103363.31;5036185;28;20117;-83
2022/01/20 02:04:42;;;;;;;5.93;1.55;;;;;;;1.71;100.00;103359.50;5035662;28;20063;-78
2022/01/20 02:18:36;;;;;;;2.58;1.20;;;;;;;0.64;100.00;103363.09;5037982;28;20075;-78
2022/01/20 02:21:04;;;;;;;4.40;1.63;;;;;;;0.55;100.00;103372.16;5050557;28;20032;-84
2022/01/20 02:23:29;;;;;;;3.25;1.42;;;;;;;0.61;100.00;103377.28;5034582;28;20040;-79
2022/01/20 02:25:55;;;;;;;6.95;1.65;;;;;;;0.59;100.00;103386.19;5039691;28;20040;-81
2022/01/20 02:28:20;;;;;;;4.47;1.75;;;;;;;0.58;100.00;103384.44;5019218;28;20044;-79
2022/01/20 02:30:46;;;;;;;6.15;1.67;;;;;;;0.44;100.00;103372.50;5016416;28;20119;-81
2022/01/20 02:33:18;;;;;;;7.03;1.35;;;;;;;0.43;100.00;103375.19;5031198;28;20037;-84
2022/01/20 02:35:47;;;;;;;5.43;1.23;;;;;;;0.32;100.00;103371.97;5050143;28;20032;-79
2022/01/20 02:45:58;;;;;;;2.72;1.58;;;;;;;0.42;100.00;103350.53;5053272;28;20146;-78
2022/01/20 02:48:24;;;;;;;6.65;1.73;;;;;;;0.56;100.00;103383.66;5055444;28;20059;-80
2022/01/20 02:50:50;;;;;;;7.43;1.48;;;;;;;0.53;100.00;103379.31;5026456;28;20390;-80
2022/01/20 02:53:16;;;;;;;9.13;2.55;;;;;;;0.72;100.00;103392.84;5023917;28;20048;-83
2022/01/20 02:55:41;;;;;;;8.40;2.35;;;;;;;0.81;100.00;103392.56;5041507;28;20044;-78
2022/01/20 02:58:07;;;;;;;7.43;1.90;;;;;;;0.71;100.00;103407.00;5039800;28;20140;-82
2022/01/20 03:00:41;;;;;;;5.38;2.05;;;;;;;0.69;100.00;103405.28;5014852;28;20082;-81
2022/01/20 03:03:07;;;;;;;7.85;1.60;;;;;;;0.80;100.00;103406.72;5023540;28;20032;-79
2022/01/20 03:05:33;;;;;;;5.90;2.00;;;;;;;0.98;100.00;103404.41;5018551;28;20101;-79
2022/01/20 03:08:00;;;;;;;7.55;2.10;;;;;;;1.08;100.00;103417.31;5034392;28;20032;-77
2022/01/20 03:10:27;;;;;;;4.60;1.80;;;;;;;1.23;100.00;103421.25;5043931;28;20051;-80
2022/01/20 03:12:52;;;;;;;9.80;2.13;;;;;;;1.32;100.00;103422.72;5033066;28;20036;-78
2022/01/20 03:15:18;;;;;;;3.60;2.05;;;;;;;1.39;100.00;103429.56;5042116;28;20044;-81
2022/01/20 03:17:44;;;;;;;5.65;2.03;;;;;;;1.39;100.00;103420.75;5021233;28;20127;-78
2022/01/20 03:20:10;;;;;;;5.57;1.85;;;;;;;1.38;100.00;103422.53;5013865;28;20117;-80
2022/01/20 03:22:36;;;;;;;3.78;1.85;;;;;;;1.47;100.00;103427.53;5029392;28;20131;-83
2022/01/20 03:25:02;;;;;;;6.18;2.00;;;;;;;1.46;100.00;103422.28;5027389;28;20480;-80
2022/01/20 03:27:28;;;;;;;4.28;1.92;;;;;;;1.35;100.00;103411.16;5044399;28;20025;-78
2022/01/20 03:29:54;;;;;;;6.13;1.80;;;;;;;1.22;100.00;103411.56;5015158;28;20497;-78
2022/01/20 03:32:20;;;;;;;7.95;2.22;;;;;;;1.03;100.00;103413.06;5050780;28;20025;-83
2022/01/20 03:34:45;;;;;;;4.88;1.95;;;;;;;0.91;100.00;103426.72;5018008;28;20039;-78
2022/01/20 03:37:11;;;;;;;3.88;1.75;;;;;;;0.92;100.00;103421.34;5021861;28;20074;-77
2022/01/20 03:39:36;;;;;;;6.75;1.48;;;;;;;1.07;100.00;103423.53;5029770;28;20025;-77
2022/01/20 03:42:02;;;;;;;11.40;2.00;;;;;;;1.20;100.00;103425.78;5029693;28;20045;-78
2022/01/20 03:44:28;;;;;;;7.40;1.80;;;;;;;1.17;100.00;103415.31;5035498;28;20044;-80
2022/01/20 03:46:56;;;;;;;10.10;2.10;;;;;;;1.07;100.00;103414.72;5032671;28;20045;-81
2022/01/20 03:49:35;;;;;;;4.10;1.73;;;;;;;0.80;100.00;103389.97;5033995;28;20146;-80
2022/01/20 03:52:02;;;;;;;4.22;1.77;;;;;;;0.69;100.00;103418.53;5022609;28;20529;-79
2022/01/20 03:54:28;;;;;;;7.68;2.03;;;;;;;0.55;100.00;103417.19;5011308;28;20040;-78
2022/01/20 03:56:54;;;;;;;6.22;1.92;;;;;;;0.54;100.00;103415.44;5064429;28;20032;-78
2022/01/20 03:59:20;;;;;;;7.10;1.92;;;;;;;0.46;100.00;103420.09;5045824;28;20591;-79
2022/01/20 04:01:48;;;;;;;7.15;1.88;;;;;;;0.56;100.00;103424.22;5038701;28;20055;-79
2022/01/20 04:04:13;;;;;;;9.10;2.20;;;;;;;0.55;100.00;103426.91;5071635;28;20032;-81
2022/01/20 04:06:41;;;;;;;5.25;1.60;;;;;;;0.62;100.00;103431.09;5030209;28;20031;-80
2022/01/20 04:09:07;;;;;;;8.25;1.70;;;;;;;0.68;100.00;103433.56;5029853;28;20048;-77
2022/01/20 04:11:33;;;;;;;12.30;1.60;;;;;;;0.69;100.00;103434.44;5028138;28;20040;-81
2022/01/20 04:13:58;;;;;;;4.57;1.63;;;;;;;0.73;100.00;103444.88;5018289;28;20029;-76
2022/01/20 04:16:32;;;;;;;2.13;1.50;;;;;;;0.78;100.00;103418.28;5055510;28;20162;-77
2022/01/20 04:18:59;;;;;;;4.22;1.75;;;;;;;0.94;100.00;103424.81;5036137;28;20055;-79
2022/01/20 04:21:27;;;;;;;6.88;1.75;;;;;;;1.08;100.00;103425.25;5061081;28;20029;-78
2022/01/20 04:23:54;;;;;;;5.25;1.67;;;;;;;1.22;100.00;103411.56;5027513;28;20033;-80
2022/01/20 04:26:20;;;;;;;5.00;1.60;;;;;;;1.28;100.00;103413.16;5038084;28;20093;-79
2022/01/20 04:28:46;;;;;;;2.72;1.88;;;;;;;1.52;100.00;103428.25;5065576;28;20035;-77
2022/01/20 04:31:12;;;;;;;7.93;2.10;;;;;;;1.58;100.00;103434.25;5018820;28;20033;-80
2022/01/20 04:33:38;;;;;;;5.15;1.80;;;;;;;1.46;100.00;103449.66;5034017;28;20041;-77
2022/01/20 04:36:06;;;;;;;2.85;1.83;;;;;;;1.29;100.00;103436.09;5025304;28;20127;-82
2022/01/20 04:38:32;;;;;;;2.60;1.20;;;;;;;1.07;100.00;103433.25;5052852;28;20120;-80
2022/01/20 04:40:57;;;;;;;3.28;1.27;;;;;;;0.97;100.00;103430.03;5037761;28;20119;-77
2022/01/20 04:43:25;;;;;;;8.40;1.60;;;;;;;0.81;100.00;103420.81;5032024;28;20439;-79
2022/01/20 04:45:58;;;;;;;4.22;1.42;;;;;;;0.79;100.00;103426.16;5031869;28;20041;-81
2022/01/20 04:48:43;;;;;;;4.97;1.77;;;;;;;0.81;100.00;103426.13;5057536;28;20474;-77
2022/01/20 04:59:24;;;;;;;3.58;1.48;;;;;;;0.45;100.00;103434.25;5056266;28;20044;-79
2022/01/20 05:01:49;;;;;;;8.00;2.10;;;;;;;0.31;100.00;103453.16;5070070;28;20036;-77
2022/01/20 05:04:15;;;;;;;5.68;1.42;;;;;;;0.08;100.00;103445.00;5038391;28;20063;-80
2022/01/20 05:06:43;;;;;;;5.30;2.00;;;;;;;0.07;100.00;103433.53;5010010;28;20434;-76
2022/01/20 05:09:11;;;;;;;5.32;1.80;;;;;;;0.20;100.00;103439.38;5048674;28;20159;-77
2022/01/20 05:11:42;;;;;;;3.53;1.20;;;;;;;0.13;100.00;103446.63;5043631;28;20037;-81
2022/01/20 05:14:08;;;;;;;5.80;1.33;;;;;;;-0.16;100.00;103433.28;5054312;28;20044;-79
2022/01/20 05:16:34;;;;;;;5.65;1.85;;;;;;;-0.42;100.00;103426.94;5035803;28;20047;-77
2022/01/20 05:18:59;;;;;;;6.10;1.90;;;;;;;-0.45;100.00;103441.09;5016458;28;20037;-80
2022/01/20 05:21:25;;;;;;;4.97;1.50;;;;;;;-0.42;100.00;103441.88;5043044;28;20040;-79
2022/01/20 05:23:50;;;;;;;3.03;1.45;;;;;;;-0.43;100.00;103437.53;5032923;28;20051;-81
2022/01/20 05:26:16;;;;;;;2.15;1.20;;;;;;;-0.57;100.00;103446.66;5029023;28;20044;-83
2022/01/20 05:28:42;;;;;;;3.88;1.40;;;;;;;-0.69;100.00;103436.38;5019856;28;20432;-81
2022/01/20 05:31:07;;;;;;;4.40;1.70;;;;;;;-0.81;100.00;103437.56;5014643;28;20047;-77
2022/01/20 05:33:33;;;;;;;2.95;1.50;;;;;;;-0.94;100.00;103436.09;5047866;28;20032;-82
2022/01/20 05:35:59;;;;;;;1.67;1.13;;;;;;;-1.03;100.00;103442.47;5051674;28;20463;-79
2022/01/20 05:38:24;;;;;;;5.53;2.00;;;;;;;-1.05;100.00;103443.41;5028706;28;20389;-82
2022/01/20 05:40:50;;;;;;;6.88;1.55;;;;;;;-0.97;100.00;103452.03;5032120;28;20043;-82
2022/01/20 05:43:16;;;;;;;2.45;1.17;;;;;;;-0.91;100.00;103444.81;5028156;28;20498;-80
2022/01/20 05:45:42;;;;;;;7.65;1.50;;;;;;;-0.89;100.00;103452.72;5031251;28;20044;-78
2022/01/20 05:48:12;;;;;;;4.97;1.48;;;;;;;-1.06;100.00;103421.41;5019388;28;20060;-82
2022/01/20 05:50:37;;;;;;;4.57;1.33;;;;;;;-1.03;100.00;103444.22;5024644;28;20379;-82
2022/01/20 05:53:05;;;;;;;3.63;1.30;;;;;;;-1.07;100.00;103447.84;5030877;28;20536;-79
2022/01/20 05:55:31;;;;;;;2.88;1.20;;;;;;;-1.09;100.00;103453.16;5065599;28;20068;-79
2022/01/20 05:57:57;;;;;;;8.00;1.33;;;;;;;-1.13;100.00;103446.22;5048893;28;20132;-81
2022/01/20 06:00:24;;;;;;;2.80;1.13;;;;;;;-1.06;100.00;103471.56;5027624;28;20119;-78
2022/01/20 06:05:35;;;;;;;5.53;1.38;;;;;;;-0.82;100.00;103472.81;5039416;28;20424;-77
2022/01/20 06:08:00;;;;;;;4.93;1.65;;;;;;;-0.65;100.00;103476.84;5025828;28;20033;-77
2022/01/20 06:10:26;;;;;;;7.40;1.80;;;;;;;-0.51;100.00;103475.56;5050583;28;20036;-78
2022/01/20 06:12:52;;;;;;;6.50;2.20;;;;;;;-0.42;100.00;103482.44;5035766;28;20045;-78
2022/01/20 06:15:17;;;;;;;10.48;2.30;;;;;;;-0.31;100.00;103487.47;5041232;28;20039;-80
2022/01/20 06:17:43;;;;;;;24.75;5.00;;;;;;;-0.11;100.00;103500.16;5033624;28;20028;-78
2022/01/20 06:20:09;;;;;;;26.55;5.68;;;;;;;0.06;100.00;103503.25;5067121;28;20106;-80
2022/01/20 06:22:36;;;;;;;21.05;5.65;;;;;;;0.22;100.00;103503.72;5036212;28;20475;-80
2022/01/20 06:25:02;;;;;;;28.88;7.30;;;;;;;0.38;100.00;103520.03;5030867;28;20029;-78
2022/01/20 06:27:29;;;;;;;32.63;7.47;;;;;;;0.40;100.00;103521.75;5050305;28;20044;-78
2022/01/20 06:29:55;;;;;;;22.38;5.97;;;;;;;0.51;100.00;103516.16;5050362;28;20135;-81
2022/01/20 06:32:20;;;;;;;25.90;5.95;;;;;;;0.59;100.00;103522.09;5052337;28;20136;-77
2022/01/20 06:34:46;;;;;;;15.57;4.82;;;;;;;0.71;100.00;103536.75;5022984;28;20397;-82
2022/01/20 06:37:12;;;;;;;14.13;4.00;;;;;;;0.83;100.00;103528.47;5022446;28;20044;-80
2022/01/20 06:39:38;;;;;;;18.38;5.90;;;;;;;1.08;100.00;103527.72;5059024;28;20199;-84
2022/01/20 06:42:05;;;;;;;8.98;2.97;;;;;;;1.40;100.00;103539.13;5052230;28;20044;-79
2022/01/20 06:44:33;;;;;;;7.38;2.38;;;;;;;1.55;100.00;103506.81;5031396;28;20475;-78
2022/01/20 06:46:59;;;;;;;7.65;2.75;;;;;;;2.09;100.00;103537.75;5024934;28;20519;-78
2022/01/20 06:49:24;;;;;;;6.05;2.42;;;;;;;2.24;100.00;103544.31;5046710;28;20041;-80
2022/01/20 06:51:50;;;;;;;8.10;2.28;;;;;;;2.03;100.00;103539.75;5033261;28;20555;-79
2022/01/20 06:54:16;;;;;;;9.23;2.65;;;;;;;1.78;100.00;103529.09;5009700;28;20043;-77
2022/01/20 06:56:42;;;;;;;5.43;2.13;;;;;;;1.82;100.00;103543.97;5049841;28;20028;-81
2022/01/20 06:59:10;;;;;;;3.63;1.33;;;;;;;1.67;100.00;103530.31;5031598;28;20044;-76
2022/01/20 07:01:35;;;;;;;2.35;1.38;;;;;;;1.84;100.00;103552.75;5023419;28;20029;-78
2022/01/20 07:04:01;;;;;;;8.35;1.80;;;;;;;1.81;100.00;103553.72;5021790;28;20039;-81
2022/01/20 07:06:27;;;;;;;6.15;1.65;;;;;;;1.75;100.00;103541.53;5035108;28;20032;-80
2022/01/20 07:08:53;;;;;;;5.75;1.85;;;;;;;1.81;100.00;103558.19;5014541;28;20074;-79
2022/01/20 07:11:19;;;;;;;3.55;1.50;;;;;;;1.81;100.00;103566.13;5016317;28;20045;-78
2022/01/20 07:13:44;;;;;;;5.25;1.67;;;;;;;1.82;100.00;103559.91;5028811;28;20040;-79
2022/01/20 07:16:12;;;;;;;5.40;1.52;;;;;;;1.83;100.00;103570.47;5043574;28;20048;-77
2022/01/20 07:18:38;;;;;;;5.15;1.60;;;;;;;1.85;100.00;103567.75;5017042;28;20392;-78
2022/01/20 07:21:03;;;;;;;6.47;1.58;;;;;;;1.86;100.00;103577.47;5017359;28;20040;-81
2022/01/20 07:23:29;;;;;;;7.60;1.80;;;;;;;1.85;100.00;103573.91;5027494;28;20403;-80
2022/01/20 07:25:55;;;;;;;8.93;1.80;;;;;;;1.96;100.00;103592.16;5036848;28;20040;-78
2022/01/20 07:28:20;;;;;;;7.35;1.55;;;;;;;1.96;100.00;103579.75;5052827;28;20051;-82
2022/01/20 07:30:46;;;;;;;3.85;1.10;;;;;;;2.06;100.00;103582.97;5052232;28;20130;-81
2022/01/20 07:33:12;;;;;;;4.13;0.80;;;;;;;2.18;100.00;103584.34;5064254;28;20033;-93
2022/01/20 07:35:38;;;;;;;5.38;1.77;;;;;;;2.30;100.00;103585.72;5035227;28;20044;-86
2022/01/20 07:38:05;;;;;;;3.25;1.35;;;;;;;2.49;100.00;103575.31;5036074;28;20040;-78
2022/01/20 07:40:32;;;;;;;11.70;1.80;;;;;;;2.51;100.00;103565.50;5050328;28;20043;-81
2022/01/20 07:43:00;;;;;;;4.35;1.08;;;;;;;2.70;100.00;103593.16;5035277;28;20028;-77
2022/01/20 07:45:26;;;;;;;5.78;1.90;;;;;;;2.70;100.00;103579.88;5021042;28;20041;-78
2022/01/20 07:47:52;;;;;;;5.70;1.52;;;;;;;2.79;100.00;103584.00;5033778;28;20028;-83
2022/01/20 07:50:18;;;;;;;6.47;1.20;;;;;;;2.78;100.00;103587.56;5020103;28;20029;-78
2022/01/20 07:52:44;;;;;;;5.07;1.00;;;;;;;2.79;100.00;103576.88;5030892;28;20437;-79
2022/01/20 07:55:10;;;;;;;10.75;1.40;;;;;;;2.86;100.00;103585.50;5045011;28;20044;-82
2022/01/20 07:57:36;;;;;;;6.50;1.60;;;;;;;2.85;100.00;103583.75;5031199;28;20041;-77
2022/01/20 08:00:04;;;;;;;4.72;1.35;;;;;;;2.61;100.00;103583.72;5052679;28;20041;-79
2022/01/20 08:02:32;;;;;;;8.30;1.75;;;;;;;2.34;100.00;103587.34;5070690;28;20128;-79
2022/01/20 08:04:58;;;;;;;7.20;1.65;;;;;;;2.14;100.00;103595.97;5039542;28;20162;-81
2022/01/20 08:07:24;;;;;;;11.98;1.80;;;;;;;2.03;100.00;103588.38;5032090;28;20087;-78
2022/01/20 08:09:56;;;;;;;3.17;1.52;;;;;;;1.72;100.00;103577.88;5019310;28;20109;-80
2022/01/20 08:12:25;;;;;;;4.38;1.40;;;;;;;1.73;100.00;103596.41;5018594;28;20040;-79
2022/01/20 08:14:51;;;;;;;5.93;2.03;;;;;;;1.65;100.00;103597.59;5044354;28;20070;-81
2022/01/20 08:17:17;;;;;;;4.63;1.60;;;;;;;1.54;100.00;103611.19;5048332;28;20033;-78
2022/01/20 08:19:43;;;;;;;11.68;1.80;;;;;;;1.50;100.00;103609.53;5017957;28;20497;-78
2022/01/20 08:22:08;;;;;;;9.27;1.85;;;;;;;1.38;100.00;103605.47;5050475;28;20040;-78
2022/01/20 08:24:34;;;;;;;9.15;2.33;;;;;;;1.37;100.00;103613.47;5063236;28;20028;-80
2022/01/20 08:27:00;;;;;;;7.50;2.20;;;;;;;1.48;100.00;103617.53;5008213;28;20036;-78
2022/01/20 08:29:26;;;;;;;8.20;2.20;;;;;;;1.50;100.00;103604.22;5024482;28;20470;-80
2022/01/20 08:31:51;;;;;;;13.35;2.88;;;;;;;1.44;100.00;103596.47;5057732;28;20406;-81
2022/01/20 08:34:17;;;;;;;9.40;1.73;;;;;;;1.43;100.00;103613.25;5052259;28;20029;-80
2022/01/20 08:36:44;;;;;;;4.55;1.30;;;;;;;1.40;100.00;103619.53;5044369;28;20033;-80
2022/01/20 08:42:06;;;;;;;4.10;1.40;;;;;;;1.34;100.00;103625.03;5052188;28;20040;-84
2022/01/20 08:44:32;;;;;;;2.25;1.25;;;;;;;1.31;100.00;103620.69;5044739;28;20048;-78
2022/01/20 08:46:58;;;;;;;5.57;1.48;;;;;;;1.40;100.00;103619.53;5049790;28;20036;-79
2022/01/20 08:49:24;;;;;;;5.72;1.77;;;;;;;1.53;100.00;103609.41;5043619;28;20098;-80
2022/01/20 08:51:51;;;;;;;6.82;2.15;;;;;;;1.67;100.00;103617.84;5036239;28;20502;-80
2022/01/20 08:54:17;;;;;;;3.13;2.40;;;;;;;1.84;100.00;103624.41;5050456;28;20173;-81
2022/01/20 08:56:43;;;;;;;8.20;1.67;;;;;;;1.96;100.00;103629.31;5019856;28;20041;-77
2022/01/20 08:59:12;;;;;;;6.13;2.00;;;;;;;2.07;100.00;103627.19;5017721;28;20174;-78
2022/01/20 09:01:40;;;;;;;11.02;2.00;;;;;;;2.27;100.00;103633.59;5052672;28;20055;-80
2022/01/20 09:04:06;;;;;;;5.45;1.60;;;;;;;2.33;100.00;103622.78;5034348;28;20556;-78
2022/01/20 09:06:32;;;;;;;5.05;1.27;;;;;;;2.59;100.00;103635.16;5041674;28;20060;-83
2022/01/20 09:08:58;;;;;;;7.82;1.40;;;;;;;2.76;100.00;103637.25;5045918;28;20275;-80
2022/01/20 09:11:30;;;;;;;4.93;1.92;;;;;;;2.92;100.00;103641.09;5030169;28;20124;-78
2022/01/20 09:16:49;;;;;;;7.80;2.72;;;;;;;3.04;100.00;103632.69;5046131;28;20112;-78
2022/01/20 09:19:16;;;;;;;13.18;4.30;;;;;;;3.05;100.00;103621.09;5035455;28;20051;-76
2022/01/20 09:21:42;;;;;;;11.98;3.42;;;;;;;3.09;100.00;103625.38;5048441;28;20102;-79
2022/01/20 09:24:08;;;;;;;7.47;3.25;;;;;;;3.11;100.00;103622.66;5050619;28;20039;-77
2022/01/20 09:26:37;;;;;;;11.15;3.97;;;;;;;3.14;100.00;103632.31;5037395;28;20040;-78
2022/01/20 09:29:02;;;;;;;10.70;3.88;;;;;;;3.16;100.00;103636.66;5021125;28;20043;-78
2022/01/20 09:31:30;;;;;;;10.02;4.97;;;;;;;3.23;100.00;103632.00;5021774;28;20068;-77
2022/01/20 09:33:56;;;;;;;15.70;4.55;;;;;;;3.34;100.00;103639.56;5043067;28;20537;-84
2022/01/20 09:36:23;;;;;;;7.05;3.40;;;;;;;3.37;100.00;103637.66;5018196;28;20063;-79
2022/01/20 09:38:49;;;;;;;8.48;2.85;;;;;;;3.41;100.00;103639.25;5063943;28;20025;-79
2022/01/20 09:41:15;;;;;;;18.42;4.82;;;;;;;3.45;100.00;103643.53;5046559;28;20036;-77
2022/01/20 09:43:42;;;;;;;11.43;3.95;;;;;;;3.51;100.00;103643.28;5030525;28;20041;-83
2022/01/20 09:46:07;;;;;;;14.50;5.90;;;;;;;3.62;100.00;103645.53;5030333;28;20051;-78
2022/01/20 09:48:33;;;;;;;16.35;7.20;;;;;;;3.76;100.00;103647.69;5036036;28;20033;-77
2022/01/20 09:51:00;;;;;;;13.00;6.15;;;;;;;3.90;100.00;103655.13;5033200;28;20033;-79
2022/01/20 09:53:27;;;;;;;23.88;8.70;;;;;;;3.95;100.00;103648.69;5029033;28;20040;-78
2022/01/20 09:55:54;;;;;;;19.58;8.10;;;;;;;3.88;100.00;103620.56;5036785;28;20025;-81
2022/01/20 09:58:19;;;;;;;13.82;6.28;;;;;;;4.15;100.00;103639.00;5034487;28;20028;-87
2022/01/20 10:00:47;;;;;;;14.15;5.95;;;;;;;4.27;100.00;103638.50;5048589;28;20032;-81
2022/01/20 10:03:17;;;;;;;19.70;5.82;;;;;;;4.35;100.00;103619.53;5060981;28;20041;-80
2022/01/20 10:05:53;;;;;;;14.60;4.20;;;;;;;4.65;100.00;103648.47;5039994;28;20131;-81
2022/01/20 10:08:21;;;;;;;9.07;3.90;;;;;;;4.80;100.00;103646.00;5070326;28;20028;-79
2022/01/20 10:11:03;;;;;;;11.32;3.83;;;;;;;4.88;100.00;103637.66;5069278;28;20045;-83
2022/01/20 10:13:34;;;;;;;15.82;4.63;;;;;;;5.01;100.00;103649.50;5033719;28;20027;-79
2022/01/20 10:16:07;;;;;;;8.68;2.83;;;;;;;4.95;100.00;103622.25;5050835;28;20111;-80
2022/01/20 10:18:43;;;;;;;7.50;2.40;;;;;;;5.25;100.00;103652.00;5033776;28;20086;-80
2022/01/20 10:21:09;;;;;;;6.85;2.05;;;;;;;5.35;100.00;103649.81;5057533;28;20099;-81
2022/01/20 10:23:43;;;;;;;10.35;2.63;;;;;;;5.46;100.00;103648.34;5033823;28;20464;-81
2022/01/20 10:26:18;;;;;;;7.10;2.33;;;;;;;5.65;100.00;103644.81;5052599;28;20029;-81
2022/01/20 10:29:09;;;;;;;10.38;3.20;;;;;;;5.73;100.00;103650.66;5016495;28;20032;-87
2022/01/20 10:31:52;;;;;;;7.18;3.33;;;;;;;5.81;100.00;103660.97;5033856;28;20051;-81
2022/01/20 10:34:31;;;;;;;16.65;6.82;;;;;;;5.99;100.00;103668.13;5033444;28;20032;-80
2022/01/20 10:37:00;;;;;;;15.55;5.78;;;;;;;5.94;100.00;103655.00;5016357;28;20450;-84
2022/01/20 10:39:32;;;;;;;9.05;4.28;;;;;;;5.80;100.00;103652.09;5033662;28;20040;-80
2022/01/20 10:42:04;;;;;;;8.05;3.72;;;;;;;5.62;100.00;103667.19;5067649;28;20063;-80
2022/01/20 10:44:44;;;;;;;27.85;13.63;;;;;;;5.48;100.00;103649.16;5032265;28;20087;-80
2022/01/20 10:47:15;;;;;;;62.05;34.13;;;;;;;5.61;100.00;103661.91;5035681;28;20382;-80
2022/01/20 10:49:41;;;;;;;18.90;9.85;;;;;;;5.72;100.00;103655.13;5035421;28;20041;-80
2022/01/20 10:52:09;;;;;;;37.17;19.88;;;;;;;5.93;100.00;103655.06;5068836;28;20111;-87
2022/01/20 10:54:41;;;;;;;29.30;16.95;;;;;;;6.02;100.00;103649.28;5032513;28;20032;-80
2022/01/20 10:57:11;;;;;;;12.93;6.05;;;;;;;6.04;100.00;103634.06;5039333;28;20492;-80
2022/01/20 10:59:54;;;;;;;22.90;8.50;;;;;;;6.14;100.00;103613.94;5025952;28;20033;-80
2022/01/20 11:02:22;;;;;;;26.60;13.02;;;;;;;6.53;100.00;103658.28;5056632;28;20038;-83
2022/01/20 11:04:49;;;;;;;24.30;14.65;;;;;;;6.68;100.00;103662.00;5023373;28;20032;-86
2022/01/20 11:07:15;;;;;;;19.65;10.07;;;;;;;6.78;100.00;103662.41;5072839;28;20028;-81
2022/01/20 11:09:46;;;;;;;19.33;8.90;;;;;;;6.79;100.00;103658.75;5057053;28;20085;-85
2022/01/20 11:12:15;;;;;;;14.48;6.95;;;;;;;6.86;100.00;103653.97;5029363;28;20041;-88
2022/01/20 11:14:50;;;;;;;15.82;5.60;;;;;;;7.10;100.00;103665.19;5066830;28;20040;-81
2022/01/20 11:17:29;;;;;;;6.63;3.57;;;;;;;7.21;100.00;103649.41;5050706;28;20032;-86
2022/01/20 11:20:04;;;;;;;10.95;3.80;;;;;;;7.44;100.00;103659.72;5049837;28;20285;-87
2022/01/20 11:22:33;;;;;;;7.72;3.20;;;;;;;7.59;100.00;103652.66;5051615;28;20029;-85
2022/01/20 11:25:06;;;;;;;6.22;2.45;;;;;;;7.71;100.00;103660.00;5035519;28;20043;-87
2022/01/20 11:27:42;;;;;;;4.75;2.05;;;;;;;7.83;100.00;103642.41;5053298;28;20067;-86
2022/01/20 11:30:26;;;;;;;7.70;1.92;;;;;;;8.00;100.00;103670.03;5051077;28;20051;-85
2022/01/20 11:33:05;;;;;;;5.43;1.88;;;;;;;8.06;100.00;103667.00;5068893;28;20575;-86
2022/01/20 11:35:39;;;;;;;5.68;1.70;;;;;;;8.13;100.00;103669.25;5052449;28;20035;-89
2022/01/20 11:38:05;;;;;;;5.13;1.40;;;;;;;8.21;100.00;103663.44;5046738;28;20033;-88
2022/01/20 11:40:37;;;;;;;5.55;1.27;;;;;;;8.22;100.00;103665.16;5065354;28;20028;-86
2022/01/20 11:43:10;;;;;;;3.63;1.30;;;;;;;8.15;100.00;103642.38;5039166;28;20462;-81
2022/01/20 11:45:44;;;;;;;7.47;1.90;;;;;;;8.21;100.00;103654.53;5014918;28;20070;-87
2022/01/20 11:48:16;;;;;;;3.45;1.27;;;;;;;8.42;100.00;103657.81;5055553;28;20035;-80
2022/01/20 11:50:46;;;;;;;7.15;1.85;;;;;;;8.57;100.00;103659.56;5020925;28;20040;-83
2022/01/20 11:53:14;;;;;;;3.00;1.00;;;;;;;8.69;100.00;103660.66;5055823;28;20041;-82
2022/01/20 11:55:51;;;;;;;6.22;0.95;;;;;;;8.74;95.64;103639.78;5027893;28;20479;-82
2022/01/20 11:58:20;;;;;;;3.30;1.02;;;;;;;9.03;96.84;103648.72;5066791;28;20045;-87
2022/01/20 12:01:08;;;;;;;8.35;1.63;;;;;;;9.16;95.13;103652.38;5050373;28;20092;-82
2022/01/20 12:03:37;;;;;;;3.30;1.02;;;;;;;9.27;92.85;103645.47;5041141;28;20040;-87
2022/01/20 12:06:09;;;;;;;5.18;1.35;;;;;;;9.60;89.28;103645.13;5036169;28;20139;-87
2022/01/20 12:08:35;;;;;;;9.02;1.35;;;;;;;9.61;87.81;103642.38;5060919;28;20052;-82
2022/01/20 12:11:03;;;;;;;4.43;0.85;;;;;;;9.59;84.89;103641.59;5066525;28;20025;-81
2022/01/20 12:13:30;;;;;;;5.68;1.17;;;;;;;9.53;85.82;103633.94;5031759;28;20036;-86
2022/01/20 12:16:00;;;;;;;3.83;0.90;;;;;;;9.45;85.86;103623.69;5030626;28;20036;-83
2022/01/20 12:18:29;;;;;;;0.80;0.75;;;;;;;9.45;85.36;103634.44;5051121;28;20359;-83
2022/01/20 12:21:01;;;;;;;7.00;1.20;;;;;;;9.39;85.78;103640.22;5028225;28;20033;-81
2022/01/20 12:23:27;;;;;;;3.15;0.77;;;;;;;9.37;85.43;103639.44;5034223;28;20539;-80
2022/01/20 12:26:01;;;;;;;3.30;0.88;;;;;;;9.29;84.10;103635.47;5037024;28;20021;-87
2022/01/20 12:28:27;;;;;;;6.65;1.30;;;;;;;9.19;82.71;103635.22;5047551;28;20025;-80
2022/01/20 12:31:00;;;;;;;4.57;1.20;;;;;;;9.16;83.23;103630.91;5067570;28;20059;-83
2022/01/20 12:33:31;;;;;;;9.45;1.42;;;;;;;9.16;83.61;103630.91;5016024;28;20041;-81
2022/01/20 12:36:02;;;;;;;2.60;0.98;;;;;;;9.25;84.45;103634.81;5047734;28;20032;-80
2022/01/20 12:38:36;;;;;;;2.75;0.95;;;;;;;9.28;82.99;103614.97;5064236;28;20048;-80